sensor_id;sensor_type;location;lat;lon;timestamp;P1;durP1;ratioP1;P2;durP2;ratioP2
47804;SDS011;33568;45.286;9.900;2023-02-24T00:01:37;150.45;;;84.47;;
47804;SDS011;33568;45.286;9.900;2023-02-24T00:04:06;143.70;;;84.25;;
47804;SDS011;33568;45.286;9.900;2023-02-24T00:06:36;154.55;;;84.78;;
47804;SDS011;33568;45.286;9.900;2023-02-24T00:11:33;134.50;;;81.32;;
47804;SDS011;33568;45.286;9.900;2023-02-24T00:14:08;142.20;;;83.18;;
47804;SDS011;33568;45.286;9.900;2023-02-24T00:16:37;136.63;;;80.90;;
47804;SDS011;33568;45.286;9.900;2023-02-24T00:19:04;140.65;;;82.38;;
47804;SDS011;33568;45.286;9.900;2023-02-24T00:21:32;142.38;;;82.68;;
47804;SDS011;33568;45.286;9.900;2023-02-24T00:24:00;164.07;;;91.47;;
47804;SDS011;33568;45.286;9.900;2023-02-24T00:26:27;142.50;;;83.03;;
47804;SDS011;33568;45.286;9.900;2023-02-24T00:28:55;158.77;;;88.20;;
47804;SDS011;33568;45.286;9.900;2023-02-24T00:31:25;143.32;;;88.00;;
47804;SDS011;33568;45.286;9.900;2023-02-24T00:33:56;161.07;;;85.65;;
47804;SDS011;33568;45.286;9.900;2023-02-24T00:36:24;148.00;;;88.78;;
47804;SDS011;33568;45.286;9.900;2023-02-24T00:38:53;155.55;;;91.85;;
47804;SDS011;33568;45.286;9.900;2023-02-24T00:41:26;158.13;;;92.57;;
47804;SDS011;33568;45.286;9.900;2023-02-24T00:43:55;160.82;;;89.47;;
47804;SDS011;33568;45.286;9.900;2023-02-24T00:46:23;152.60;;;86.25;;
47804;SDS011;33568;45.286;9.900;2023-02-24T00:48:52;166.55;;;93.03;;
47804;SDS011;33568;45.286;9.900;2023-02-24T00:51:20;167.63;;;97.10;;
47804;SDS011;33568;45.286;9.900;2023-02-24T00:53:49;178.50;;;99.50;;
47804;SDS011;33568;45.286;9.900;2023-02-24T00:56:21;194.13;;;99.72;;
47804;SDS011;33568;45.286;9.900;2023-02-24T00:58:49;178.27;;;98.55;;
47804;SDS011;33568;45.286;9.900;2023-02-24T01:01:16;172.05;;;99.03;;
47804;SDS011;33568;45.286;9.900;2023-02-24T01:03:44;180.57;;;99.68;;
47804;SDS011;33568;45.286;9.900;2023-02-24T01:06:16;166.10;;;91.88;;
47804;SDS011;33568;45.286;9.900;2023-02-24T01:08:46;155.82;;;91.60;;
47804;SDS011;33568;45.286;9.900;2023-02-24T01:11:18;159.90;;;93.50;;
47804;SDS011;33568;45.286;9.900;2023-02-24T01:14:07;149.77;;;89.55;;
47804;SDS011;33568;45.286;9.900;2023-02-24T01:16:39;176.60;;;99.10;;
47804;SDS011;33568;45.286;9.900;2023-02-24T01:19:06;162.85;;;93.88;;
47804;SDS011;33568;45.286;9.900;2023-02-24T01:21:33;163.15;;;93.57;;
47804;SDS011;33568;45.286;9.900;2023-02-24T01:24:00;163.45;;;96.10;;
47804;SDS011;33568;45.286;9.900;2023-02-24T01:26:26;178.93;;;98.32;;
47804;SDS011;33568;45.286;9.900;2023-02-24T01:28:53;167.10;;;96.13;;
47804;SDS011;33568;45.286;9.900;2023-02-24T01:31:20;168.15;;;95.60;;
47804;SDS011;33568;45.286;9.900;2023-02-24T01:33:50;166.32;;;96.38;;
47804;SDS011;33568;45.286;9.900;2023-02-24T01:38:44;151.73;;;87.30;;
47804;SDS011;33568;45.286;9.900;2023-02-24T01:41:14;154.38;;;87.93;;
47804;SDS011;33568;45.286;9.900;2023-02-24T01:46:26;148.27;;;86.35;;
47804;SDS011;33568;45.286;9.900;2023-02-24T01:49:00;162.18;;;94.47;;
47804;SDS011;33568;45.286;9.900;2023-02-24T01:51:34;161.25;;;91.93;;
47804;SDS011;33568;45.286;9.900;2023-02-24T01:54:04;174.52;;;94.65;;
47804;SDS011;33568;45.286;9.900;2023-02-24T01:56:33;172.32;;;95.30;;
47804;SDS011;33568;45.286;9.900;2023-02-24T01:59:00;174.48;;;97.72;;
47804;SDS011;33568;45.286;9.900;2023-02-24T02:01:28;160.63;;;94.13;;
47804;SDS011;33568;45.286;9.900;2023-02-24T02:03:57;148.00;;;90.75;;
47804;SDS011;33568;45.286;9.900;2023-02-24T02:06:31;165.13;;;93.65;;
47804;SDS011;33568;45.286;9.900;2023-02-24T02:11:24;158.32;;;91.53;;
47804;SDS011;33568;45.286;9.900;2023-02-24T02:22:02;176.10;;;99.53;;
47804;SDS011;33568;45.286;9.900;2023-02-24T02:24:47;181.77;;;101.45;;
47804;SDS011;33568;45.286;9.900;2023-02-24T02:27:32;167.15;;;94.78;;
47804;SDS011;33568;45.286;9.900;2023-02-24T02:30:34;152.00;;;89.72;;
47804;SDS011;33568;45.286;9.900;2023-02-24T02:33:54;123.60;;;77.93;;
47804;SDS011;33568;45.286;9.900;2023-02-24T02:42:23;120.00;;;76.82;;
47804;SDS011;33568;45.286;9.900;2023-02-24T02:47:41;126.70;;;77.50;;
47804;SDS011;33568;45.286;9.900;2023-02-24T02:50:34;132.35;;;75.57;;
47804;SDS011;33568;45.286;9.900;2023-02-24T02:53:09;129.82;;;77.43;;
47804;SDS011;33568;45.286;9.900;2023-02-24T02:55:42;130.57;;;79.65;;
47804;SDS011;33568;45.286;9.900;2023-02-24T02:58:19;139.50;;;81.97;;
47804;SDS011;33568;45.286;9.900;2023-02-24T03:00:55;145.57;;;82.13;;
47804;SDS011;33568;45.286;9.900;2023-02-24T03:03:29;141.13;;;83.25;;
47804;SDS011;33568;45.286;9.900;2023-02-24T03:06:05;129.45;;;80.47;;
47804;SDS011;33568;45.286;9.900;2023-02-24T03:08:43;156.07;;;87.68;;
47804;SDS011;33568;45.286;9.900;2023-02-24T03:11:19;165.90;;;91.35;;
47804;SDS011;33568;45.286;9.900;2023-02-24T03:16:16;152.93;;;86.88;;
47804;SDS011;33568;45.286;9.900;2023-02-24T03:18:47;181.35;;;94.30;;
47804;SDS011;33568;45.286;9.900;2023-02-24T03:21:32;181.63;;;97.28;;
47804;SDS011;33568;45.286;9.900;2023-02-24T03:24:03;172.32;;;94.45;;
47804;SDS011;33568;45.286;9.900;2023-02-24T03:29:16;147.05;;;86.85;;
47804;SDS011;33568;45.286;9.900;2023-02-24T03:34:38;132.50;;;78.70;;
47804;SDS011;33568;45.286;9.900;2023-02-24T03:37:27;148.98;;;86.13;;
47804;SDS011;33568;45.286;9.900;2023-02-24T03:39:56;155.65;;;86.97;;
47804;SDS011;33568;45.286;9.900;2023-02-24T03:42:33;157.27;;;89.57;;
47804;SDS011;33568;45.286;9.900;2023-02-24T03:45:00;155.13;;;85.97;;
47804;SDS011;33568;45.286;9.900;2023-02-24T03:47:27;155.82;;;87.28;;
47804;SDS011;33568;45.286;9.900;2023-02-24T03:49:55;147.20;;;85.95;;
47804;SDS011;33568;45.286;9.900;2023-02-24T03:52:41;120.10;;;74.47;;
47804;SDS011;33568;45.286;9.900;2023-02-24T03:55:32;163.27;;;68.13;;
47804;SDS011;33568;45.286;9.900;2023-02-24T03:58:27;478.20;;;77.93;;
47804;SDS011;33568;45.286;9.900;2023-02-24T04:01:12;443.88;;;83.68;;
47804;SDS011;33568;45.286;9.900;2023-02-24T04:12:16;135.65;;;81.30;;
47804;SDS011;33568;45.286;9.900;2023-02-24T04:14:55;131.18;;;78.40;;
47804;SDS011;33568;45.286;9.900;2023-02-24T04:17:27;132.48;;;81.93;;
47804;SDS011;33568;45.286;9.900;2023-02-24T04:19:58;117.35;;;74.72;;
47804;SDS011;33568;45.286;9.900;2023-02-24T04:22:42;124.97;;;76.45;;
47804;SDS011;33568;45.286;9.900;2023-02-24T04:25:10;135.75;;;81.22;;
47804;SDS011;33568;45.286;9.900;2023-02-24T04:27:41;125.68;;;78.32;;
47804;SDS011;33568;45.286;9.900;2023-02-24T04:30:13;127.75;;;77.97;;
47804;SDS011;33568;45.286;9.900;2023-02-24T04:32:41;117.45;;;75.35;;
47804;SDS011;33568;45.286;9.900;2023-02-24T04:35:11;126.72;;;80.88;;
47804;SDS011;33568;45.286;9.900;2023-02-24T04:37:42;141.15;;;79.15;;
47804;SDS011;33568;45.286;9.900;2023-02-24T04:40:14;142.98;;;82.40;;
47804;SDS011;33568;45.286;9.900;2023-02-24T04:42:43;117.85;;;77.28;;
47804;SDS011;33568;45.286;9.900;2023-02-24T04:45:17;131.80;;;79.03;;
47804;SDS011;33568;45.286;9.900;2023-02-24T04:47:47;140.38;;;84.30;;
47804;SDS011;33568;45.286;9.900;2023-02-24T04:50:19;169.63;;;95.40;;
47804;SDS011;33568;45.286;9.900;2023-02-24T04:52:49;169.50;;;96.47;;
47804;SDS011;33568;45.286;9.900;2023-02-24T04:55:16;170.20;;;92.05;;
47804;SDS011;33568;45.286;9.900;2023-02-24T04:57:44;160.95;;;89.90;;
47804;SDS011;33568;45.286;9.900;2023-02-24T05:00:11;153.13;;;89.28;;
47804;SDS011;33568;45.286;9.900;2023-02-24T05:02:48;150.60;;;88.65;;
47804;SDS011;33568;45.286;9.900;2023-02-24T05:05:18;158.18;;;91.05;;
47804;SDS011;33568;45.286;9.900;2023-02-24T05:07:51;148.73;;;88.80;;
47804;SDS011;33568;45.286;9.900;2023-02-24T05:10:19;151.57;;;89.38;;
47804;SDS011;33568;45.286;9.900;2023-02-24T05:12:47;156.15;;;86.63;;
47804;SDS011;33568;45.286;9.900;2023-02-24T05:15:13;152.05;;;89.57;;
47804;SDS011;33568;45.286;9.900;2023-02-24T05:17:40;157.07;;;88.80;;
47804;SDS011;33568;45.286;9.900;2023-02-24T05:22:52;144.82;;;85.68;;
47804;SDS011;33568;45.286;9.900;2023-02-24T05:25:19;159.43;;;88.53;;
47804;SDS011;33568;45.286;9.900;2023-02-24T05:27:45;150.60;;;85.75;;
47804;SDS011;33568;45.286;9.900;2023-02-24T05:30:12;154.02;;;91.10;;
47804;SDS011;33568;45.286;9.900;2023-02-24T05:32:39;157.95;;;91.10;;
47804;SDS011;33568;45.286;9.900;2023-02-24T05:35:06;166.60;;;92.40;;
47804;SDS011;33568;45.286;9.900;2023-02-24T05:37:37;167.38;;;93.57;;
47804;SDS011;33568;45.286;9.900;2023-02-24T05:40:07;175.77;;;94.53;;
47804;SDS011;33568;45.286;9.900;2023-02-24T05:42:38;154.27;;;90.35;;
47804;SDS011;33568;45.286;9.900;2023-02-24T05:45:09;162.75;;;94.72;;
47804;SDS011;33568;45.286;9.900;2023-02-24T05:47:36;161.35;;;93.82;;
47804;SDS011;33568;45.286;9.900;2023-02-24T05:50:05;168.05;;;94.95;;
47804;SDS011;33568;45.286;9.900;2023-02-24T05:52:34;168.55;;;96.22;;
47804;SDS011;33568;45.286;9.900;2023-02-24T05:55:02;171.75;;;96.18;;
47804;SDS011;33568;45.286;9.900;2023-02-24T05:57:31;161.50;;;92.13;;
47804;SDS011;33568;45.286;9.900;2023-02-24T06:00:00;153.77;;;92.22;;
47804;SDS011;33568;45.286;9.900;2023-02-24T06:02:41;149.60;;;90.97;;
47804;SDS011;33568;45.286;9.900;2023-02-24T06:05:15;160.52;;;93.28;;
47804;SDS011;33568;45.286;9.900;2023-02-24T06:07:53;163.95;;;91.97;;
47804;SDS011;33568;45.286;9.900;2023-02-24T06:10:28;178.57;;;97.00;;
47804;SDS011;33568;45.286;9.900;2023-02-24T06:12:56;182.25;;;98.38;;
47804;SDS011;33568;45.286;9.900;2023-02-24T06:15:22;191.60;;;103.57;;
47804;SDS011;33568;45.286;9.900;2023-02-24T06:17:49;196.75;;;106.82;;
47804;SDS011;33568;45.286;9.900;2023-02-24T06:20:16;187.63;;;101.60;;
47804;SDS011;33568;45.286;9.900;2023-02-24T06:22:42;195.45;;;107.03;;
47804;SDS011;33568;45.286;9.900;2023-02-24T06:25:09;409.23;;;268.02;;
47804;SDS011;33568;45.286;9.900;2023-02-24T06:27:38;219.77;;;121.30;;
47804;SDS011;33568;45.286;9.900;2023-02-24T06:32:34;220.25;;;112.75;;
47804;SDS011;33568;45.286;9.900;2023-02-24T06:35:01;224.07;;;114.72;;
47804;SDS011;33568;45.286;9.900;2023-02-24T06:37:28;235.55;;;115.97;;
47804;SDS011;33568;45.286;9.900;2023-02-24T06:39:54;227.35;;;114.50;;
47804;SDS011;33568;45.286;9.900;2023-02-24T06:42:23;230.35;;;115.43;;
47804;SDS011;33568;45.286;9.900;2023-02-24T06:44:49;234.95;;;117.30;;
47804;SDS011;33568;45.286;9.900;2023-02-24T06:47:15;263.75;;;125.53;;
47804;SDS011;33568;45.286;9.900;2023-02-24T06:49:42;246.65;;;116.35;;
47804;SDS011;33568;45.286;9.900;2023-02-24T06:52:09;233.18;;;114.07;;
47804;SDS011;33568;45.286;9.900;2023-02-24T06:54:36;262.88;;;123.10;;
47804;SDS011;33568;45.286;9.900;2023-02-24T06:57:02;260.77;;;122.75;;
47804;SDS011;33568;45.286;9.900;2023-02-24T06:59:29;274.45;;;126.70;;
47804;SDS011;33568;45.286;9.900;2023-02-24T07:01:57;259.67;;;124.82;;
47804;SDS011;33568;45.286;9.900;2023-02-24T07:04:26;285.52;;;128.18;;
47804;SDS011;33568;45.286;9.900;2023-02-24T07:06:53;284.85;;;128.90;;
47804;SDS011;33568;45.286;9.900;2023-02-24T07:09:23;286.52;;;134.60;;
47804;SDS011;33568;45.286;9.900;2023-02-24T07:11:51;270.55;;;127.18;;
47804;SDS011;33568;45.286;9.900;2023-02-24T07:14:21;253.68;;;120.50;;
47804;SDS011;33568;45.286;9.900;2023-02-24T07:16:50;230.30;;;114.13;;
47804;SDS011;33568;45.286;9.900;2023-02-24T07:19:24;208.93;;;108.00;;
47804;SDS011;33568;45.286;9.900;2023-02-24T07:21:54;240.32;;;114.18;;
47804;SDS011;33568;45.286;9.900;2023-02-24T07:24:25;263.27;;;120.10;;
47804;SDS011;33568;45.286;9.900;2023-02-24T07:26:58;271.65;;;120.93;;
47804;SDS011;33568;45.286;9.900;2023-02-24T07:29:28;257.08;;;122.15;;
47804;SDS011;33568;45.286;9.900;2023-02-24T07:32:02;258.05;;;121.03;;
47804;SDS011;33568;45.286;9.900;2023-02-24T07:34:31;257.38;;;123.50;;
47804;SDS011;33568;45.286;9.900;2023-02-24T07:36:58;265.40;;;125.97;;
47804;SDS011;33568;45.286;9.900;2023-02-24T07:39:28;253.20;;;124.78;;
47804;SDS011;33568;45.286;9.900;2023-02-24T07:41:54;246.48;;;122.68;;
47804;SDS011;33568;45.286;9.900;2023-02-24T07:44:21;262.52;;;124.93;;
47804;SDS011;33568;45.286;9.900;2023-02-24T07:46:49;259.55;;;123.10;;
47804;SDS011;33568;45.286;9.900;2023-02-24T07:49:20;243.57;;;121.78;;
47804;SDS011;33568;45.286;9.900;2023-02-24T07:51:51;238.70;;;118.70;;
47804;SDS011;33568;45.286;9.900;2023-02-24T07:54:20;244.82;;;121.60;;
47804;SDS011;33568;45.286;9.900;2023-02-24T07:56:50;249.95;;;124.95;;
47804;SDS011;33568;45.286;9.900;2023-02-24T08:01:55;227.18;;;118.28;;
47804;SDS011;33568;45.286;9.900;2023-02-24T08:04:24;228.25;;;118.10;;
47804;SDS011;33568;45.286;9.900;2023-02-24T08:06:52;226.75;;;115.20;;
47804;SDS011;33568;45.286;9.900;2023-02-24T08:09:24;247.27;;;120.35;;
47804;SDS011;33568;45.286;9.900;2023-02-24T08:12:17;241.70;;;121.07;;
47804;SDS011;33568;45.286;9.900;2023-02-24T08:14:49;213.57;;;114.68;;
47804;SDS011;33568;45.286;9.900;2023-02-24T08:17:21;218.10;;;114.68;;
47804;SDS011;33568;45.286;9.900;2023-02-24T08:19:52;223.68;;;116.57;;
47804;SDS011;33568;45.286;9.900;2023-02-24T08:22:38;220.57;;;115.55;;
47804;SDS011;33568;45.286;9.900;2023-02-24T08:25:08;230.30;;;120.68;;
47804;SDS011;33568;45.286;9.900;2023-02-24T08:27:43;231.25;;;119.10;;
47804;SDS011;33568;45.286;9.900;2023-02-24T08:30:13;242.10;;;125.72;;
47804;SDS011;33568;45.286;9.900;2023-02-24T08:32:49;227.50;;;116.82;;
47804;SDS011;33568;45.286;9.900;2023-02-24T08:35:25;227.85;;;120.70;;
47804;SDS011;33568;45.286;9.900;2023-02-24T08:38:19;218.60;;;113.00;;
47804;SDS011;33568;45.286;9.900;2023-02-24T08:40:50;200.02;;;109.28;;
47804;SDS011;33568;45.286;9.900;2023-02-24T08:45:58;206.98;;;112.35;;
47804;SDS011;33568;45.286;9.900;2023-02-24T08:48:42;196.48;;;110.57;;
47804;SDS011;33568;45.286;9.900;2023-02-24T08:51:38;202.00;;;109.18;;
47804;SDS011;33568;45.286;9.900;2023-02-24T08:54:09;191.27;;;108.18;;
47804;SDS011;33568;45.286;9.900;2023-02-24T08:56:42;197.50;;;110.07;;
47804;SDS011;33568;45.286;9.900;2023-02-24T08:59:17;208.95;;;110.85;;
47804;SDS011;33568;45.286;9.900;2023-02-24T09:02:06;202.80;;;111.10;;
47804;SDS011;33568;45.286;9.900;2023-02-24T09:07:12;193.65;;;105.15;;
47804;SDS011;33568;45.286;9.900;2023-02-24T09:09:40;195.15;;;110.40;;
47804;SDS011;33568;45.286;9.900;2023-02-24T09:12:07;206.80;;;113.53;;
47804;SDS011;33568;45.286;9.900;2023-02-24T09:14:35;203.20;;;113.03;;
47804;SDS011;33568;45.286;9.900;2023-02-24T09:17:02;207.13;;;116.80;;
47804;SDS011;33568;45.286;9.900;2023-02-24T09:19:34;219.00;;;116.78;;
47804;SDS011;33568;45.286;9.900;2023-02-24T09:22:08;209.90;;;116.10;;
47804;SDS011;33568;45.286;9.900;2023-02-24T09:25:06;214.52;;;114.93;;
47804;SDS011;33568;45.286;9.900;2023-02-24T09:28:15;211.07;;;114.63;;
47804;SDS011;33568;45.286;9.900;2023-02-24T09:30:50;208.98;;;117.32;;
47804;SDS011;33568;45.286;9.900;2023-02-24T09:38:19;201.18;;;114.45;;
47804;SDS011;33568;45.286;9.900;2023-02-24T09:46:42;207.02;;;114.05;;
47804;SDS011;33568;45.286;9.900;2023-02-24T09:49:19;195.15;;;110.60;;
47804;SDS011;33568;45.286;9.900;2023-02-24T09:51:49;198.18;;;110.70;;
47804;SDS011;33568;45.286;9.900;2023-02-24T09:54:28;194.50;;;108.97;;
47804;SDS011;33568;45.286;9.900;2023-02-24T09:57:05;195.13;;;109.72;;
47804;SDS011;33568;45.286;9.900;2023-02-24T09:59:47;189.43;;;106.72;;
47804;SDS011;33568;45.286;9.900;2023-02-24T10:03:12;197.07;;;110.35;;
47804;SDS011;33568;45.286;9.900;2023-02-24T10:08:26;186.20;;;104.95;;
47804;SDS011;33568;45.286;9.900;2023-02-24T10:10:59;185.18;;;106.82;;
47804;SDS011;33568;45.286;9.900;2023-02-24T10:19:13;181.38;;;101.78;;
47804;SDS011;33568;45.286;9.900;2023-02-24T10:27:20;180.90;;;103.13;;
47804;SDS011;33568;45.286;9.900;2023-02-24T10:32:47;170.30;;;103.00;;
47804;SDS011;33568;45.286;9.900;2023-02-24T10:35:24;172.32;;;100.32;;
47804;SDS011;33568;45.286;9.900;2023-02-24T10:37:58;170.90;;;101.18;;
47804;SDS011;33568;45.286;9.900;2023-02-24T10:40:33;156.85;;;96.57;;
47804;SDS011;33568;45.286;9.900;2023-02-24T10:43:18;166.90;;;99.80;;
47804;SDS011;33568;45.286;9.900;2023-02-24T10:45:58;177.20;;;98.25;;
47804;SDS011;33568;45.286;9.900;2023-02-24T10:48:32;167.20;;;99.05;;
47804;SDS011;33568;45.286;9.900;2023-02-24T10:51:16;162.13;;;97.53;;
47804;SDS011;33568;45.286;9.900;2023-02-24T10:54:02;154.32;;;99.85;;
47804;SDS011;33568;45.286;9.900;2023-02-24T10:56:48;157.93;;;93.60;;
47804;SDS011;33568;45.286;9.900;2023-02-24T10:59:46;141.43;;;91.47;;
47804;SDS011;33568;45.286;9.900;2023-02-24T11:02:35;144.40;;;90.65;;
47804;SDS011;33568;45.286;9.900;2023-02-24T11:05:25;155.48;;;97.60;;
47804;SDS011;33568;45.286;9.900;2023-02-24T11:08:06;169.57;;;100.57;;
47804;SDS011;33568;45.286;9.900;2023-02-24T11:11:01;157.90;;;95.63;;
47804;SDS011;33568;45.286;9.900;2023-02-24T11:13:48;150.32;;;94.25;;
47804;SDS011;33568;45.286;9.900;2023-02-24T11:16:45;144.30;;;89.57;;
47804;SDS011;33568;45.286;9.900;2023-02-24T11:19:40;133.85;;;86.20;;
47804;SDS011;33568;45.286;9.900;2023-02-24T11:22:20;144.05;;;84.22;;
47804;SDS011;33568;45.286;9.900;2023-02-24T11:24:49;122.80;;;81.50;;
47804;SDS011;33568;45.286;9.900;2023-02-24T11:27:17;116.78;;;75.47;;
47804;SDS011;33568;45.286;9.900;2023-02-24T11:29:59;110.57;;;74.95;;
47804;SDS011;33568;45.286;9.900;2023-02-24T11:35:12;98.93;;;69.18;;
47804;SDS011;33568;45.286;9.900;2023-02-24T11:39:02;110.47;;;72.72;;
47804;SDS011;33568;45.286;9.900;2023-02-24T11:41:20;101.43;;;68.75;;
47804;SDS011;33568;45.286;9.900;2023-02-24T11:44:34;92.50;;;61.63;;
47804;SDS011;33568;45.286;9.900;2023-02-24T11:47:21;113.68;;;72.32;;
47804;SDS011;33568;45.286;9.900;2023-02-24T11:50:03;104.38;;;71.78;;
47804;SDS011;33568;45.286;9.900;2023-02-24T11:52:42;100.87;;;69.77;;
47804;SDS011;33568;45.286;9.900;2023-02-24T11:55:19;91.82;;;66.63;;
47804;SDS011;33568;45.286;9.900;2023-02-24T11:57:59;91.00;;;64.93;;
47804;SDS011;33568;45.286;9.900;2023-02-24T12:00:31;90.18;;;68.00;;
47804;SDS011;33568;45.286;9.900;2023-02-24T12:03:07;89.80;;;65.65;;
47804;SDS011;33568;45.286;9.900;2023-02-24T12:05:43;99.15;;;66.20;;
47804;SDS011;33568;45.286;9.900;2023-02-24T12:16:27;92.97;;;63.90;;
47804;SDS011;33568;45.286;9.900;2023-02-24T12:18:59;91.97;;;63.15;;
47804;SDS011;33568;45.286;9.900;2023-02-24T12:21:33;89.18;;;65.28;;
47804;SDS011;33568;45.286;9.900;2023-02-24T12:24:04;94.30;;;65.68;;
47804;SDS011;33568;45.286;9.900;2023-02-24T12:26:45;89.93;;;63.78;;
47804;SDS011;33568;45.286;9.900;2023-02-24T12:29:37;88.40;;;63.35;;
47804;SDS011;33568;45.286;9.900;2023-02-24T12:32:19;89.65;;;66.07;;
47804;SDS011;33568;45.286;9.900;2023-02-24T12:43:03;93.72;;;66.70;;
47804;SDS011;33568;45.286;9.900;2023-02-24T12:58:45;88.40;;;62.92;;
47804;SDS011;33568;45.286;9.900;2023-02-24T13:04:13;79.93;;;60.47;;
47804;SDS011;33568;45.286;9.900;2023-02-24T13:07:03;82.93;;;61.25;;
47804;SDS011;33568;45.286;9.900;2023-02-24T13:12:42;85.15;;;61.80;;
47804;SDS011;33568;45.286;9.900;2023-02-24T13:15:19;68.97;;;46.75;;
47804;SDS011;33568;45.286;9.900;2023-02-24T13:17:50;70.75;;;48.25;;
47804;SDS011;33568;45.286;9.900;2023-02-24T13:22:51;75.68;;;53.90;;
47804;SDS011;33568;45.286;9.900;2023-02-24T13:25:19;75.10;;;54.72;;
47804;SDS011;33568;45.286;9.900;2023-02-24T13:27:58;70.00;;;52.85;;
47804;SDS011;33568;45.286;9.900;2023-02-24T13:30:33;64.53;;;46.20;;
47804;SDS011;33568;45.286;9.900;2023-02-24T13:33:04;68.68;;;50.42;;
47804;SDS011;33568;45.286;9.900;2023-02-24T13:35:48;77.72;;;52.90;;
47804;SDS011;33568;45.286;9.900;2023-02-24T13:38:24;76.93;;;55.88;;
47804;SDS011;33568;45.286;9.900;2023-02-24T13:44:02;66.28;;;45.85;;
47804;SDS011;33568;45.286;9.900;2023-02-24T13:46:40;66.85;;;42.63;;
47804;SDS011;33568;45.286;9.900;2023-02-24T14:03:36;66.20;;;46.53;;
47804;SDS011;33568;45.286;9.900;2023-02-24T14:06:06;65.53;;;46.10;;
47804;SDS011;33568;45.286;9.900;2023-02-24T14:08:48;66.95;;;47.28;;
47804;SDS011;33568;45.286;9.900;2023-02-24T14:11:19;73.55;;;48.10;;
47804;SDS011;33568;45.286;9.900;2023-02-24T14:13:51;73.35;;;49.95;;
47804;SDS011;33568;45.286;9.900;2023-02-24T14:16:23;67.75;;;48.47;;
47804;SDS011;33568;45.286;9.900;2023-02-24T14:18:56;70.32;;;49.28;;
47804;SDS011;33568;45.286;9.900;2023-02-24T14:21:27;64.13;;;47.47;;
47804;SDS011;33568;45.286;9.900;2023-02-24T14:26:27;67.22;;;47.83;;
47804;SDS011;33568;45.286;9.900;2023-02-24T14:28:59;68.35;;;48.08;;
47804;SDS011;33568;45.286;9.900;2023-02-24T14:31:26;70.63;;;48.78;;
47804;SDS011;33568;45.286;9.900;2023-02-24T14:33:58;64.60;;;46.38;;
47804;SDS011;33568;45.286;9.900;2023-02-24T14:36:45;71.53;;;48.85;;
47804;SDS011;33568;45.286;9.900;2023-02-24T14:39:25;65.32;;;49.05;;
47804;SDS011;33568;45.286;9.900;2023-02-24T14:42:03;76.30;;;47.15;;
47804;SDS011;33568;45.286;9.900;2023-02-24T14:44:40;64.82;;;48.53;;
47804;SDS011;33568;45.286;9.900;2023-02-24T14:47:10;63.90;;;46.47;;
47804;SDS011;33568;45.286;9.900;2023-02-24T14:49:39;68.22;;;47.53;;
47804;SDS011;33568;45.286;9.900;2023-02-24T14:52:08;68.43;;;48.38;;
47804;SDS011;33568;45.286;9.900;2023-02-24T14:54:37;70.10;;;48.20;;
47804;SDS011;33568;45.286;9.900;2023-02-24T14:57:11;70.82;;;47.53;;
47804;SDS011;33568;45.286;9.900;2023-02-24T14:59:42;69.85;;;49.53;;
47804;SDS011;33568;45.286;9.900;2023-02-24T15:02:14;68.82;;;49.90;;
47804;SDS011;33568;45.286;9.900;2023-02-24T15:04:43;72.70;;;49.65;;
47804;SDS011;33568;45.286;9.900;2023-02-24T15:07:16;73.20;;;50.58;;
47804;SDS011;33568;45.286;9.900;2023-02-24T15:09:46;72.20;;;48.15;;
47804;SDS011;33568;45.286;9.900;2023-02-24T15:12:30;70.78;;;49.72;;
47804;SDS011;33568;45.286;9.900;2023-02-24T15:17:37;67.80;;;48.60;;
47804;SDS011;33568;45.286;9.900;2023-02-24T15:22:52;77.63;;;53.80;;
47804;SDS011;33568;45.286;9.900;2023-02-24T15:25:20;68.20;;;49.33;;
47804;SDS011;33568;45.286;9.900;2023-02-24T15:35:28;73.13;;;51.03;;
47804;SDS011;33568;45.286;9.900;2023-02-24T15:37:57;73.13;;;50.40;;
47804;SDS011;33568;45.286;9.900;2023-02-24T15:40:25;75.13;;;51.42;;
47804;SDS011;33568;45.286;9.900;2023-02-24T15:42:54;75.03;;;51.33;;
47804;SDS011;33568;45.286;9.900;2023-02-24T15:45:33;71.68;;;50.17;;
47804;SDS011;33568;45.286;9.900;2023-02-24T15:48:03;70.85;;;49.65;;
47804;SDS011;33568;45.286;9.900;2023-02-24T15:50:44;71.05;;;51.08;;
47804;SDS011;33568;45.286;9.900;2023-02-24T15:53:11;76.85;;;52.70;;
47804;SDS011;33568;45.286;9.900;2023-02-24T15:55:39;79.70;;;53.00;;
47804;SDS011;33568;45.286;9.900;2023-02-24T15:58:12;74.10;;;51.45;;
47804;SDS011;33568;45.286;9.900;2023-02-24T16:00:42;77.47;;;54.95;;
47804;SDS011;33568;45.286;9.900;2023-02-24T16:03:10;83.82;;;54.42;;
47804;SDS011;33568;45.286;9.900;2023-02-24T16:05:37;81.75;;;54.65;;
47804;SDS011;33568;45.286;9.900;2023-02-24T16:08:03;76.63;;;55.35;;
47804;SDS011;33568;45.286;9.900;2023-02-24T16:10:30;80.63;;;54.78;;
47804;SDS011;33568;45.286;9.900;2023-02-24T16:15:29;77.40;;;53.20;;
47804;SDS011;33568;45.286;9.900;2023-02-24T16:17:58;81.82;;;54.50;;
47804;SDS011;33568;45.286;9.900;2023-02-24T16:20:27;83.97;;;56.80;;
47804;SDS011;33568;45.286;9.900;2023-02-24T16:23:01;82.72;;;54.80;;
47804;SDS011;33568;45.286;9.900;2023-02-24T16:25:33;88.57;;;60.05;;
47804;SDS011;33568;45.286;9.900;2023-02-24T16:28:03;90.35;;;57.38;;
47804;SDS011;33568;45.286;9.900;2023-02-24T16:30:29;89.72;;;59.33;;
47804;SDS011;33568;45.286;9.900;2023-02-24T16:35:23;85.93;;;55.92;;
47804;SDS011;33568;45.286;9.900;2023-02-24T16:37:50;83.60;;;58.95;;
47804;SDS011;33568;45.286;9.900;2023-02-24T16:40:26;92.57;;;57.78;;
47804;SDS011;33568;45.286;9.900;2023-02-24T16:42:58;83.70;;;56.03;;
47804;SDS011;33568;45.286;9.900;2023-02-24T16:45:25;80.32;;;55.95;;
47804;SDS011;33568;45.286;9.900;2023-02-24T16:47:54;85.30;;;56.75;;
47804;SDS011;33568;45.286;9.900;2023-02-24T16:50:28;80.63;;;56.03;;
47804;SDS011;33568;45.286;9.900;2023-02-24T16:53:00;80.30;;;55.67;;
47804;SDS011;33568;45.286;9.900;2023-02-24T16:55:27;83.13;;;57.80;;
47804;SDS011;33568;45.286;9.900;2023-02-24T17:00:19;77.40;;;52.47;;
47804;SDS011;33568;45.286;9.900;2023-02-24T17:02:48;74.95;;;53.35;;
47804;SDS011;33568;45.286;9.900;2023-02-24T17:05:16;78.13;;;54.63;;
47804;SDS011;33568;45.286;9.900;2023-02-24T17:07:46;79.25;;;53.63;;
47804;SDS011;33568;45.286;9.900;2023-02-24T17:10:14;85.88;;;57.35;;
47804;SDS011;33568;45.286;9.900;2023-02-24T17:12:42;79.43;;;56.83;;
47804;SDS011;33568;45.286;9.900;2023-02-24T17:15:19;82.85;;;56.63;;
47804;SDS011;33568;45.286;9.900;2023-02-24T17:17:47;79.90;;;57.25;;
47804;SDS011;33568;45.286;9.900;2023-02-24T17:20:15;85.32;;;56.50;;
47804;SDS011;33568;45.286;9.900;2023-02-24T17:22:43;80.10;;;56.05;;
47804;SDS011;33568;45.286;9.900;2023-02-24T17:25:21;83.53;;;57.35;;
47804;SDS011;33568;45.286;9.900;2023-02-24T17:27:51;87.30;;;54.47;;
47804;SDS011;33568;45.286;9.900;2023-02-24T17:30:21;74.82;;;52.47;;